Terminal Aerodrome Forecast
Issued by NWS

Home | Current Version | Previous Version | Text Only | Print | Product List | Glossary On
Versions: 1 2 3 4 5 6 7 8 9 10 11 12 13 14
000
FTUS46 KSEW 281739
TAFOLM
TAF
KOLM 281739Z 2818/2918 21012KT P6SM -SHRA SCT025 OVC045
     FM282000 24013G20KT P6SM -SHRA BKN035 BKN050
     FM290100 22008KT P6SM VCSH BKN035 BKN050
     FM290600 20006KT P6SM OVC030
     FM291000 20005KT P6SM OVC015=

USA.gov is the U.S. government's official web portal to all federal, state and local government web resources and services.